createdAt,value
2022-11-10T00:00:22.485Z,87.90
2022-11-10T00:05:40.182Z,87.60
2022-11-10T00:11:01.397Z,87.50
2022-11-10T00:16:37.794Z,87.50
2022-11-10T00:21:55.175Z,87.60
2022-11-10T00:27:13.215Z,87.90
2022-11-10T00:32:31.422Z,88.20
2022-11-10T00:37:49.029Z,88.20
2022-11-10T00:43:06.126Z,87.90
2022-11-10T00:48:23.160Z,87.80
2022-11-10T00:53:40.785Z,87.80
2022-11-10T00:58:58.151Z,87.70
2022-11-10T01:04:16.009Z,88.00
2022-11-10T01:09:33.063Z,88.40
2022-11-10T01:14:50.282Z,88.70
2022-11-10T01:20:08.504Z,88.80
2022-11-10T01:25:26.227Z,88.80
2022-11-10T01:30:44.181Z,88.80
2022-11-10T01:36:02.250Z,89.00
2022-11-10T01:41:20.216Z,89.20
2022-11-10T01:46:37.345Z,89.40
2022-11-10T01:51:55.545Z,89.50
2022-11-10T01:57:12.969Z,89.40
2022-11-10T02:02:30.100Z,89.50
2022-11-10T02:07:47.238Z,89.70
2022-11-10T02:13:04.961Z,90.00
2022-11-10T02:18:22.173Z,90.10
2022-11-10T02:23:39.344Z,90.30
2022-11-10T02:28:57.028Z,90.40
2022-11-10T02:34:14.295Z,90.30
2022-11-10T02:39:32.246Z,90.30
2022-11-10T02:44:50.194Z,90.30
2022-11-10T02:50:07.013Z,90.30
2022-11-10T02:55:24.136Z,90.30
2022-11-10T03:00:41.310Z,90.20
2022-11-10T03:05:58.945Z,90.20
2022-11-10T03:11:15.960Z,90.30
2022-11-10T03:16:33.236Z,90.30
2022-11-10T03:21:50.113Z,90.40
2022-11-10T03:27:07.321Z,90.40
2022-11-10T03:32:25.557Z,90.50
2022-11-10T03:37:43.182Z,90.60
2022-11-10T03:43:00.241Z,90.80
2022-11-10T03:48:17.118Z,90.80
2022-11-10T03:53:34.145Z,90.80
2022-11-10T03:58:51.149Z,90.70
2022-11-10T04:04:08.306Z,90.80
2022-11-10T04:09:26.405Z,90.70
2022-11-10T04:15:02.551Z,90.70
2022-11-10T04:20:20.885Z,90.70
2022-11-10T04:25:38.422Z,90.60
2022-11-10T04:30:56.254Z,90.60
2022-11-10T04:36:13.271Z,90.70
2022-11-10T04:41:30.194Z,90.70
2022-11-10T04:46:47.489Z,90.80
2022-11-10T04:52:05.174Z,90.80
2022-11-10T04:57:22.557Z,90.80
2022-11-10T05:02:40.072Z,90.80
2022-11-10T05:07:57.219Z,91.00
2022-11-10T05:13:14.194Z,91.20
2022-11-10T05:18:31.210Z,91.30
2022-11-10T05:23:57.355Z,91.20
2022-11-10T05:29:15.232Z,91.10
2022-11-10T05:34:32.595Z,91.00
2022-11-10T05:39:50.040Z,91.20
2022-11-10T05:45:06.875Z,91.30
2022-11-10T05:50:24.303Z,91.40
2022-11-10T05:55:42.444Z,91.50
2022-11-10T06:01:00.495Z,91.50
2022-11-10T06:06:18.299Z,91.40
2022-11-10T06:17:31.409Z,91.40
2022-11-10T06:22:49.372Z,91.30
2022-11-10T06:28:07.106Z,91.30
2022-11-10T06:33:24.411Z,91.30
2022-11-10T06:38:42.330Z,91.30
2022-11-10T06:43:59.878Z,91.30
2022-11-10T06:49:17.506Z,91.30
2022-11-10T06:54:35.314Z,91.30
2022-11-10T06:59:52.264Z,91.40
2022-11-10T07:05:09.198Z,91.40
2022-11-10T07:10:26.233Z,91.60
2022-11-10T07:15:43.168Z,91.60
2022-11-10T07:21:00.195Z,91.70
2022-11-10T07:26:17.367Z,91.90
2022-11-10T07:31:34.317Z,91.90
2022-11-10T07:36:51.463Z,91.90
2022-11-10T07:42:09.249Z,91.90
2022-11-10T07:47:26.217Z,92.00
2022-11-10T07:52:43.538Z,92.10
2022-11-10T07:58:01.591Z,92.10
2022-11-10T08:03:19.714Z,92.10
2022-11-10T08:08:37.257Z,92.00
2022-11-10T08:13:54.220Z,92.00
2022-11-10T08:19:11.474Z,91.90
2022-11-10T08:24:29.332Z,92.00
2022-11-10T08:29:46.479Z,92.00
2022-11-10T08:35:04.214Z,91.60
2022-11-10T08:40:23.012Z,91.50
2022-11-10T08:45:40.380Z,91.50
2022-11-10T08:50:58.412Z,91.40
2022-11-10T08:56:18.228Z,91.40
2022-11-10T09:01:35.620Z,91.50
2022-11-10T09:06:53.396Z,91.50
2022-11-10T09:12:10.266Z,91.60
2022-11-10T09:17:27.372Z,91.60
2022-11-10T09:22:44.235Z,91.60
2022-11-10T09:28:01.103Z,91.60
2022-11-10T09:33:18.609Z,91.50
2022-11-10T09:38:36.440Z,91.50
2022-11-10T09:43:54.238Z,91.60
2022-11-10T09:49:11.423Z,91.60
2022-11-10T09:54:29.513Z,91.30
2022-11-10T09:59:47.374Z,91.40
2022-11-10T10:05:04.420Z,91.20
2022-11-10T10:10:22.751Z,91.30
2022-11-10T10:15:40.587Z,91.30
2022-11-10T10:20:58.460Z,91.10
2022-11-10T10:26:15.343Z,90.90
2022-11-10T10:31:32.639Z,91.00
2022-11-10T10:36:50.092Z,90.80
2022-11-10T10:42:07.520Z,90.60
2022-11-10T10:47:25.476Z,90.50
2022-11-10T10:52:44.986Z,90.40
2022-11-10T10:58:02.541Z,90.50
2022-11-10T11:03:20.366Z,90.30
2022-11-10T11:08:38.117Z,90.00
2022-11-10T11:13:55.498Z,89.80
2022-11-10T11:19:15.400Z,89.20
2022-11-10T11:24:32.338Z,88.80
2022-11-10T11:29:49.388Z,88.30
2022-11-10T11:35:06.675Z,87.90
2022-11-10T11:40:24.230Z,86.80
2022-11-10T11:45:41.484Z,86.60
2022-11-10T11:50:59.772Z,86.00
2022-11-10T11:56:17.525Z,83.90
2022-11-10T12:01:34.542Z,82.90
2022-11-10T12:06:52.635Z,82.20
2022-11-10T12:12:10.580Z,80.80
2022-11-10T12:17:28.584Z,80.70
2022-11-10T12:22:46.486Z,79.30
2022-11-10T12:28:04.325Z,78.80
2022-11-10T12:33:22.866Z,78.80
2022-11-10T12:38:40.710Z,77.00
2022-11-10T12:43:58.498Z,77.30
2022-11-10T12:49:15.504Z,77.00
2022-11-10T12:54:32.638Z,76.90
2022-11-10T12:59:50.592Z,75.70
2022-11-10T13:05:07.669Z,75.80
2022-11-10T13:10:25.567Z,75.50
2022-11-10T13:15:42.674Z,76.10
2022-11-10T13:21:01.385Z,76.70
2022-11-10T13:26:18.669Z,76.70
2022-11-10T13:31:36.602Z,75.30
2022-11-10T13:36:54.409Z,74.60
2022-11-10T13:42:11.509Z,75.00
2022-11-10T13:47:28.533Z,74.10
2022-11-10T13:52:46.504Z,73.80
2022-11-10T13:58:03.648Z,72.60
2022-11-10T14:03:21.661Z,72.00
2022-11-10T14:08:39.448Z,71.10
2022-11-10T14:13:57.164Z,70.40
2022-11-10T14:19:14.637Z,69.90
2022-11-10T14:24:31.560Z,69.30
2022-11-10T14:29:48.460Z,69.40
2022-11-10T14:35:05.893Z,69.00
2022-11-10T14:40:23.541Z,69.20
2022-11-10T14:45:40.633Z,68.70
2022-11-10T14:50:59.354Z,68.20
2022-11-10T14:56:16.594Z,68.60
2022-11-10T15:01:33.898Z,68.90
2022-11-10T15:06:51.560Z,69.50
2022-11-10T15:12:08.610Z,70.20
2022-11-10T15:17:25.580Z,70.60
2022-11-10T15:22:42.939Z,71.00
2022-11-10T15:28:00.606Z,71.40
2022-11-10T15:33:18.626Z,71.80
2022-11-10T15:38:35.600Z,72.00
2022-11-10T15:43:52.565Z,72.30
2022-11-10T15:49:09.602Z,72.50
2022-11-10T15:54:26.395Z,72.80
2022-11-10T15:59:43.674Z,72.90
2022-11-10T16:05:00.492Z,73.00
2022-11-10T16:10:17.637Z,73.90
2022-11-10T16:15:34.580Z,74.40
2022-11-10T16:20:51.976Z,74.90
2022-11-10T16:26:09.567Z,75.20
2022-11-10T16:31:26.654Z,75.50
2022-11-10T16:36:44.486Z,75.80
2022-11-10T16:42:02.116Z,76.00
2022-11-10T16:47:19.770Z,76.00
2022-11-10T16:52:39.083Z,76.10
2022-11-10T16:57:56.743Z,76.10
2022-11-10T17:03:14.862Z,76.40
2022-11-10T17:08:32.688Z,77.00
2022-11-10T17:13:49.618Z,77.80
2022-11-10T17:19:06.843Z,78.70
2022-11-10T17:24:24.572Z,79.50
2022-11-10T17:29:42.658Z,80.20
2022-11-10T17:35:00.822Z,80.60
2022-11-10T17:40:18.969Z,81.00
2022-11-10T17:45:36.735Z,81.70
2022-11-10T17:50:54.463Z,81.90
2022-11-10T17:56:11.900Z,82.40
2022-11-10T18:01:29.831Z,82.80
2022-11-10T18:06:47.913Z,83.00
2022-11-10T18:12:05.692Z,83.30
2022-11-10T18:17:23.659Z,83.20
2022-11-10T18:22:40.587Z,83.50
2022-11-10T18:27:57.854Z,84.10
2022-11-10T18:33:15.594Z,84.30
2022-11-10T18:38:32.715Z,84.50
2022-11-10T18:43:50.682Z,84.50
2022-11-10T18:49:07.691Z,84.90
2022-11-10T18:54:24.575Z,84.90
2022-11-10T18:59:41.751Z,85.00
2022-11-10T19:04:59.617Z,85.30
2022-11-10T19:10:17.766Z,85.40
2022-11-10T19:15:34.608Z,85.60
2022-11-10T19:20:51.702Z,85.60
2022-11-10T19:26:08.955Z,85.50
2022-11-10T19:31:26.698Z,85.20
2022-11-10T19:36:43.815Z,85.30
2022-11-10T19:42:01.787Z,85.50
2022-11-10T19:47:19.714Z,85.70
2022-11-10T19:52:36.838Z,85.70
2022-11-10T19:57:55.122Z,86.10
2022-11-10T20:03:12.698Z,86.70
2022-11-10T20:08:29.637Z,86.60
2022-11-10T20:13:48.843Z,86.80
2022-11-10T20:19:05.823Z,87.10
2022-11-10T20:24:22.870Z,87.50
2022-11-10T20:29:40.927Z,87.70
2022-11-10T20:34:58.784Z,87.80
2022-11-10T20:40:43.029Z,87.90
2022-11-10T20:45:35.926Z,88.20
2022-11-10T20:50:53.851Z,88.20
2022-11-10T20:56:12.046Z,88.30
2022-11-10T21:01:32.041Z,88.30
2022-11-10T21:06:49.740Z,88.30
2022-11-10T21:12:25.232Z,88.40
2022-11-10T21:17:44.328Z,88.30
2022-11-10T21:23:03.529Z,88.40
2022-11-10T21:28:20.850Z,88.20
2022-11-10T21:33:38.954Z,88.40
2022-11-10T21:38:57.023Z,88.20
2022-11-10T21:44:14.736Z,88.20
2022-11-10T21:49:31.863Z,88.10
2022-11-10T21:54:48.862Z,88.20
2022-11-10T22:00:05.730Z,88.40
2022-11-10T22:05:22.743Z,88.30
2022-11-10T22:10:58.121Z,88.50
2022-11-10T22:16:34.432Z,88.70
2022-11-10T22:21:51.641Z,88.90
2022-11-10T22:27:08.600Z,89.10
2022-11-10T22:32:25.878Z,89.60
2022-11-10T22:37:42.859Z,89.60
2022-11-10T22:43:18.120Z,89.60
2022-11-10T22:48:44.671Z,89.90
2022-11-10T22:54:05.073Z,89.90
2022-11-10T22:59:24.788Z,90.00
2022-11-10T23:04:41.699Z,90.20
2022-11-10T23:09:58.636Z,90.20
2022-11-10T23:15:16.036Z,90.30
2022-11-10T23:20:33.591Z,90.30
2022-11-10T23:25:50.847Z,90.30
2022-11-10T23:31:08.935Z,90.40
2022-11-10T23:36:26.857Z,90.50
2022-11-10T23:41:44.877Z,90.40
2022-11-10T23:47:01.962Z,90.30
2022-11-10T23:52:20.118Z,90.50
2022-11-10T23:57:38.206Z,90.40
